首页
METAR-TAF:

METAR-TAF

机场 :

甘露機場

坎卢普斯, 不列颠哥伦比亚, 加拿大

纬度: 50-42N, 经度: 120-27W, 海拔: 345米

当前天气观测

该预报发布于23分钟前的21:00 UTC
风速14节,风向,有时为20节阵风
温度 12°C
湿度 38%
气压 1012 hPa
能見度: 64.4公里
多云层高于8500英尺, 塔状积云.
多云层高于23000英尺
附近有阵雨

METAR: CYKA 182100Z 01014G20KT 40SM VCSH BKN085TCU BKN230 12/M02 A2989 RMK TCU6CI1 SLP129 DENSITY ALT 1200FT

时间: 14:23 (21:23 UTC)

预报

该预报发布于1小时和2分钟前的20:21 UTC
预报有效从18日的 20点(UTC)到 19日的 07点(UTC)
风速15节,风向西,有时为30节阵风
能見度: 10公里
散云层高于8000英尺
多云层高于20000英尺
短暂存在
从 18日的 20点(UTC)到 19日的 04点(UTC)
能見度: 10公里
多云层高于8000英尺
阴天层高于20000英尺
小阵雨
成为
从 18日的 22点(UTC)到 18日的 24点(UTC)
风速10节,风向南转西南

TAF: CYKA 182021Z 1820/1907 26015G30KT P6SM SCT080 BKN200 TEMPO 1820/1904 P6SM -SHRA BKN080 OVC200 BECMG 1822/1824 20010KT RMK NXT FCST BY 190100Z

超过4000个机场的气象观测和天气预报(METAR&TAF报告)。

可查询的气象台以黄色和红色小点在地图上表示。

将鼠标移到小点上方,可查看气象台名称。

然后点击查看天气观测和预报。

如需切换地图:点击带黑十字的绿色按钮放大地图;点击带横线的绿色按钮缩小地图;或者点击绿色箭头查看邻近地区的地图。


METAR-TAF: